Terminal Aerodrome Forecast
Issued by NWS Sioux Falls, SD

Home | Current Version | Previous Version | Text Only | Print | Product List | Glossary Off
Versions: 1 2 3 4 5 6 7 8 9 10 11 12 13 14 15 16 17 18 19

725
FTUS43 KFSD 041238 AAA
TAFHON
TAF AMD
KHON 041238Z 0413/0512 28008KT P6SM BKN015
     FM041500 31007KT P6SM BKN020
     FM041800 30005KT P6SM SCT025
     FM042300 VRB03KT P6SM SCT150
     FM050500 16007KT P6SM BKN130=

USA.gov is the U.S. government's official web portal to all federal, state and local government web resources and services.